METAR Data
IDs: Format: Raw Decoded Include TAF

Data at: 1021 UTC 18 Jan 2022

METAR for:KHLX (Hillsville/Twin Cnty, VA, US)
Text:KHLX 181015Z AUTO 29008G18KT 10SM OVC014 M05/M07 A2989 RMK AO2 T10501070
Temperature: -5.0°C ( 23°F)
Dewpoint: -7.0°C ( 19°F) [RH = 86%]
Pressure (altimeter):29.89 inches Hg (1012.3 mb)
Winds:from the WNW (290 degrees) at 9 MPH (8 knots; 4.1 m/s) gusting to 21 MPH (18 knots; 9.3 m/s)
Visibility:10 or more sm (16+ km)
Ceiling:1400 feet AGL
Clouds: overcast cloud deck at 1400 feet AGL
QC Flag:automated observation with no human augmentation